Time;durP1;ratioP1;P1;durP2;ratioP2;P2;SDS_P1;SDS_P2;PMS_P1;PMS_P2;Temp;Humidity;BMP_temperature;BMP_pressure;BME280_temperature;BME280_humidity;BME280_pressure;Samples;Min_cycle;Max_cycle;Signal;HPM_P1;HPM_P2
2020/12/11 00:00:06;;;;;;;6.80;4.38;;;;;;;1.97;77.77;99982.41;5086240;28;20076;-74
2020/12/11 00:02:34;;;;;;;7.88;3.92;;;;;;;1.90;77.94;99970.31;5085634;28;20117;-74
2020/12/11 00:05:00;;;;;;;7.65;4.38;;;;;;;1.98;77.75;99979.00;5085925;28;20032;-74
2020/12/11 00:07:25;;;;;;;4.38;2.13;;;;;;;2.02;77.79;99971.38;5085801;28;20025;-75
2020/12/11 00:09:51;;;;;;;5.82;3.97;;;;;;;1.94;77.84;99971.22;5085503;28;20031;-74
2020/12/11 00:12:16;;;;;;;6.28;3.90;;;;;;;1.89;78.08;99968.59;5085728;28;20012;-74
2020/12/11 00:14:41;;;;;;;8.18;4.43;;;;;;;1.91;78.13;99966.94;5085749;28;20024;-74
2020/12/11 00:17:07;;;;;;;6.07;3.75;;;;;;;1.87;78.29;99965.13;5084328;28;20038;-73
2020/12/11 00:19:32;;;;;;;6.45;3.35;;;;;;;1.89;78.45;99965.16;5085461;28;20020;-73
2020/12/11 00:21:57;;;;;;;6.35;3.60;;;;;;;1.88;78.34;99953.19;5085576;28;20039;-74
2020/12/11 00:24:23;;;;;;;8.80;4.25;;;;;;;1.87;78.55;99956.59;5085310;28;20025;-72
2020/12/11 00:26:50;;;;;;;7.07;4.00;;;;;;;1.89;78.57;99942.97;5085531;28;20059;-74
2020/12/11 00:29:15;;;;;;;6.20;3.83;;;;;;;1.91;78.42;99950.69;5085347;28;20405;-74
2020/12/11 00:31:41;;;;;;;7.32;4.43;;;;;;;1.89;78.57;99948.09;5085442;28;20031;-72
2020/12/11 00:34:06;;;;;;;7.00;4.30;;;;;;;2.04;78.04;99932.19;5085140;28;20120;-73
2020/12/11 00:36:32;;;;;;;6.85;4.50;;;;;;;1.97;78.14;99936.31;5085264;28;20028;-71
2020/12/11 00:38:57;;;;;;;7.18;4.38;;;;;;;1.93;78.45;99936.22;5085147;28;20384;-74
2020/12/11 00:41:22;;;;;;;8.13;4.85;;;;;;;1.95;78.38;99932.00;5084856;28;20032;-74
2020/12/11 00:43:48;;;;;;;6.85;3.63;;;;;;;1.99;78.30;99923.53;5084027;28;20226;-72
2020/12/11 00:46:13;;;;;;;4.90;2.97;;;;;;;1.98;78.08;99912.44;5083676;28;20021;-74
2020/12/11 00:48:39;;;;;;;7.20;3.97;;;;;;;2.09;77.43;99919.47;5084899;28;20061;-73
2020/12/11 00:51:05;;;;;;;3.78;2.88;;;;;;;1.95;77.82;99912.38;5085085;28;20080;-73
2020/12/11 00:53:30;;;;;;;4.63;1.80;;;;;;;1.91;78.11;99910.59;5083628;28;20032;-72
2020/12/11 00:55:56;;;;;;;5.57;3.63;;;;;;;2.02;77.60;99912.50;5084689;28;20029;-72
2020/12/11 00:58:22;;;;;;;5.72;4.20;;;;;;;1.89;78.09;99907.13;5084777;28;20044;-74
2020/12/11 01:00:47;;;;;;;5.18;2.95;;;;;;;1.92;78.02;99901.19;5084743;28;20021;-72
2020/12/11 01:03:12;;;;;;;4.90;2.90;;;;;;;1.91;77.64;99890.13;5084612;28;20040;-73
2020/12/11 01:05:38;;;;;;;6.63;3.28;;;;;;;1.89;77.84;99896.03;5084699;28;20085;-73
2020/12/11 01:08:05;;;;;;;6.97;4.30;;;;;;;1.83;77.77;99877.19;5084446;28;20020;-72
2020/12/11 01:10:31;;;;;;;3.38;2.15;;;;;;;1.93;77.83;99892.72;5084218;28;20024;-72
2020/12/11 01:12:56;;;;;;;4.63;2.92;;;;;;;1.96;77.47;99883.41;5084468;28;20081;-72
2020/12/11 01:15:22;;;;;;;5.10;3.85;;;;;;;1.87;77.88;99882.34;5084468;28;20035;-72
2020/12/11 01:17:47;;;;;;;5.90;3.30;;;;;;;1.89;77.67;99880.66;5084656;28;20055;-73
2020/12/11 01:20:13;;;;;;;6.53;3.80;;;;;;;1.80;78.21;99887.38;5084214;28;20088;-74
2020/12/11 01:22:38;;;;;;;4.78;2.95;;;;;;;1.78;78.52;99875.34;5084157;28;20439;-74
2020/12/11 01:25:04;;;;;;;3.08;2.15;;;;;;;1.89;77.90;99876.41;5083962;28;20084;-74
2020/12/11 01:27:29;;;;;;;4.57;1.85;;;;;;;1.86;77.96;99871.25;5084197;28;20033;-74
2020/12/11 01:29:54;;;;;;;4.30;2.63;;;;;;;1.90;77.98;99854.25;5084058;28;20028;-73
2020/12/11 01:32:20;;;;;;;6.32;3.80;;;;;;;1.75;78.59;99870.19;5084238;28;20031;-73
2020/12/11 01:34:45;;;;;;;8.63;4.13;;;;;;;1.71;78.86;99869.28;5084074;28;20084;-73
2020/12/11 01:37:11;;;;;;;7.55;4.28;;;;;;;1.72;78.48;99853.94;5084142;28;20028;-73
2020/12/11 01:39:36;;;;;;;6.07;3.47;;;;;;;1.71;78.87;99867.56;5083449;28;20084;-73
2020/12/11 01:42:07;;;;;;;3.97;3.13;;;;;;;1.83;78.21;99861.81;5083975;28;20373;-73
2020/12/11 01:44:32;;;;;;;6.20;1.77;;;;;;;1.96;78.02;99862.91;5084079;28;20040;-73
2020/12/11 01:46:59;;;;;;;5.93;4.03;;;;;;;1.72;78.62;99863.31;5083921;28;20028;-73
2020/12/11 01:49:25;;;;;;;4.13;2.55;;;;;;;1.92;77.85;99868.78;5082679;28;20024;-74
2020/12/11 01:51:51;;;;;;;4.82;3.13;;;;;;;1.83;77.89;99855.84;5083687;28;20028;-73
2020/12/11 01:54:17;;;;;;;6.60;3.53;;;;;;;1.72;78.34;99847.97;5083269;28;20087;-73
2020/12/11 01:56:55;;;;;;;5.55;3.17;;;;;;;1.76;78.32;99854.84;5083727;28;20025;-74
2020/12/11 01:59:29;;;;;;;6.80;4.25;;;;;;;1.68;78.69;99861.50;5083455;28;20031;-73
2020/12/11 02:01:58;;;;;;;4.35;2.55;;;;;;;1.72;78.78;99853.06;5083487;28;20116;-73
2020/12/11 02:04:23;;;;;;;7.07;3.95;;;;;;;1.72;78.47;99841.16;5083598;28;20032;-73
2020/12/11 02:06:50;;;;;;;5.90;3.20;;;;;;;1.72;78.62;99836.03;5083782;28;20059;-73
2020/12/11 02:09:16;;;;;;;5.18;3.08;;;;;;;1.91;77.24;99827.81;5083430;28;20024;-72
2020/12/11 02:11:42;;;;;;;5.57;3.78;;;;;;;1.68;78.38;99831.69;5083478;28;20393;-74
2020/12/11 02:14:09;;;;;;;6.55;3.00;;;;;;;1.76;78.12;99838.66;5083567;28;20032;-74
2020/12/11 02:16:34;;;;;;;3.95;2.08;;;;;;;1.85;77.73;99826.84;5082357;28;20047;-74
2020/12/11 02:18:59;;;;;;;4.65;3.08;;;;;;;1.95;77.30;99829.59;5083406;28;20501;-74
2020/12/11 02:21:25;;;;;;;5.60;3.60;;;;;;;1.73;77.73;99819.84;5083557;28;20092;-74
2020/12/11 02:23:50;;;;;;;4.70;3.13;;;;;;;1.77;77.75;99825.00;5083488;28;20055;-74
2020/12/11 02:26:15;;;;;;;2.70;1.88;;;;;;;1.75;77.87;99817.31;5083279;28;20029;-74
2020/12/11 02:28:41;;;;;;;4.50;2.78;;;;;;;1.71;78.04;99810.41;5083574;28;20049;-74
2020/12/11 02:31:06;;;;;;;4.75;2.38;;;;;;;2.06;76.59;99809.31;5083427;28;20020;-74
2020/12/11 02:33:32;;;;;;;4.38;2.72;;;;;;;1.80;77.18;99825.94;5083387;28;20439;-73
2020/12/11 02:35:57;;;;;;;6.05;3.78;;;;;;;1.86;77.04;99817.50;5083576;28;20033;-74
2020/12/11 02:38:23;;;;;;;3.60;2.38;;;;;;;1.79;77.24;99805.44;5083272;28;20480;-73
2020/12/11 02:40:53;;;;;;;3.92;2.00;;;;;;;2.04;76.12;99813.53;5083133;28;20020;-73
2020/12/11 02:43:19;;;;;;;6.60;3.47;;;;;;;1.68;77.60;99810.31;5083491;28;20119;-73
2020/12/11 02:45:46;;;;;;;3.78;2.28;;;;;;;1.98;76.20;99810.00;5083431;28;20423;-74
2020/12/11 02:48:12;;;;;;;5.43;3.53;;;;;;;1.80;77.05;99815.69;5083254;28;20035;-74
2020/12/11 02:50:38;;;;;;;3.50;2.00;;;;;;;1.86;76.97;99820.03;5081958;28;20021;-75
2020/12/11 02:53:04;;;;;;;6.65;3.22;;;;;;;1.66;77.66;99812.00;5083460;28;20024;-74
2020/12/11 02:55:29;;;;;;;4.30;2.42;;;;;;;1.79;77.41;99813.09;5081859;28;20522;-74
2020/12/11 02:57:54;;;;;;;3.50;1.98;;;;;;;2.00;76.20;99806.63;5083141;28;20024;-73
2020/12/11 03:00:20;;;;;;;5.18;2.55;;;;;;;1.82;76.66;99816.56;5083060;28;20126;-73
2020/12/11 03:02:45;;;;;;;2.90;2.17;;;;;;;1.84;76.71;99806.34;5082867;28;20096;-74
2020/12/11 03:05:11;;;;;;;2.40;1.70;;;;;;;1.94;76.28;99808.25;5081760;28;20050;-74
2020/12/11 03:07:36;;;;;;;4.72;1.88;;;;;;;1.86;76.51;99802.13;5085339;28;20028;-73
2020/12/11 03:10:02;;;;;;;3.88;2.45;;;;;;;1.68;76.89;99798.41;5086480;28;20465;-73
2020/12/11 03:12:28;;;;;;;6.00;3.17;;;;;;;1.70;77.38;99801.88;5086704;28;20363;-75
2020/12/11 03:14:53;;;;;;;3.83;2.35;;;;;;;1.80;76.68;99790.09;5086953;28;20016;-74
2020/12/11 03:17:18;;;;;;;6.15;3.10;;;;;;;1.69;77.13;99800.13;5087036;28;20452;-73
2020/12/11 03:19:44;;;;;;;4.60;3.20;;;;;;;1.76;77.11;99801.09;5086621;28;20100;-73
2020/12/11 03:22:09;;;;;;;3.53;2.13;;;;;;;1.76;77.24;99795.13;5086831;28;20037;-73
2020/12/11 03:24:34;;;;;;;5.00;3.00;;;;;;;1.96;76.02;99798.03;5086308;28;20027;-73
2020/12/11 03:26:59;;;;;;;5.57;3.78;;;;;;;1.78;76.52;99796.00;5086573;28;20032;-73
2020/12/11 03:29:25;;;;;;;6.22;3.58;;;;;;;1.68;77.05;99794.97;5086393;28;20027;-73
2020/12/11 03:31:50;;;;;;;4.80;2.95;;;;;;;1.78;76.78;99790.88;5085166;28;20032;-73
2020/12/11 03:34:16;;;;;;;2.22;1.80;;;;;;;1.73;77.02;99788.25;5086432;28;20107;-73
2020/12/11 03:36:41;;;;;;;3.38;2.13;;;;;;;1.67;77.11;99783.03;5085012;28;20082;-73
2020/12/11 03:39:06;;;;;;;3.80;2.42;;;;;;;1.48;77.08;99763.09;5086210;28;20056;-73
2020/12/11 03:41:31;;;;;;;5.72;3.33;;;;;;;1.56;77.71;99778.59;5086105;28;20028;-73
2020/12/11 03:43:57;;;;;;;2.95;1.98;;;;;;;1.66;77.63;99783.88;5084804;28;20024;-74
2020/12/11 03:46:22;;;;;;;4.30;2.63;;;;;;;1.66;77.13;99769.34;5086244;28;20031;-73
2020/12/11 03:48:49;;;;;;;3.03;1.92;;;;;;;1.68;77.18;99777.06;5086070;28;20029;-74
2020/12/11 03:51:19;;;;;;;4.60;2.88;;;;;;;1.64;77.14;99781.28;5086041;28;20031;-73
2020/12/11 03:53:46;;;;;;;4.70;2.92;;;;;;;1.56;77.53;99768.34;5086187;28;20044;-73
2020/12/11 03:56:15;;;;;;;4.55;2.83;;;;;;;1.63;77.20;99765.91;5085425;28;20032;-73
2020/12/11 03:58:42;;;;;;;4.43;2.72;;;;;;;1.58;77.48;99765.81;5085887;28;20016;-73
2020/12/11 04:01:11;;;;;;;4.53;3.22;;;;;;;1.58;77.47;99771.78;5085932;28;20028;-73
2020/12/11 04:03:37;;;;;;;4.00;2.33;;;;;;;1.68;76.96;99767.69;5086065;28;20097;-73
2020/12/11 04:06:15;;;;;;;1.92;1.48;;;;;;;1.77;76.53;99774.69;5085902;28;20404;-73
2020/12/11 04:08:42;;;;;;;3.75;1.80;;;;;;;1.97;75.25;99759.66;5085581;28;20028;-73
2020/12/11 04:11:12;;;;;;;4.80;2.50;;;;;;;1.67;76.44;99768.53;5085328;28;20126;-73
2020/12/11 04:13:39;;;;;;;2.95;2.15;;;;;;;1.76;76.17;99765.25;5085874;28;20034;-73
2020/12/11 04:16:05;;;;;;;4.70;2.75;;;;;;;1.66;76.54;99771.06;5085655;28;20028;-75
2020/12/11 04:18:31;;;;;;;5.10;2.97;;;;;;;1.68;76.28;99760.00;5085287;28;20060;-72
2020/12/11 04:20:56;;;;;;;4.47;2.67;;;;;;;1.75;75.86;99757.56;5085597;28;20085;-73
2020/12/11 04:23:23;;;;;;;3.80;1.90;;;;;;;1.90;75.20;99757.81;5085295;28;20094;-72
2020/12/11 04:25:49;;;;;;;2.47;1.45;;;;;;;1.95;74.58;99758.75;5085075;28;20083;-73
2020/12/11 04:28:14;;;;;;;4.13;1.60;;;;;;;1.73;75.54;99747.28;5084955;28;20047;-73
2020/12/11 04:30:40;;;;;;;4.53;1.80;;;;;;;1.81;75.16;99755.09;5085393;28;20024;-74
2020/12/11 04:33:05;;;;;;;3.15;2.00;;;;;;;1.79;74.99;99749.97;5085446;28;20080;-73
2020/12/11 04:35:31;;;;;;;3.10;1.80;;;;;;;1.87;74.88;99754.38;5085215;28;20074;-74
2020/12/11 04:37:56;;;;;;;4.32;2.42;;;;;;;1.69;75.25;99751.50;5085070;28;20060;-73
2020/12/11 04:40:21;;;;;;;4.25;2.65;;;;;;;1.65;75.48;99742.06;5084784;28;20029;-74
2020/12/11 04:42:47;;;;;;;4.97;2.90;;;;;;;1.71;75.35;99757.50;5085205;28;20081;-74
2020/12/11 04:45:13;;;;;;;3.20;2.13;;;;;;;1.86;74.56;99758.63;5085263;28;20028;-74
2020/12/11 04:47:46;;;;;;;5.13;3.30;;;;;;;1.64;75.52;99748.00;5084985;28;20038;-74
2020/12/11 04:50:16;;;;;;;2.53;1.73;;;;;;;1.81;75.21;99737.19;5084916;28;20021;-74
2020/12/11 04:52:46;;;;;;;5.75;2.58;;;;;;;1.75;74.60;99740.53;5085058;28;20071;-74
2020/12/11 04:55:17;;;;;;;4.47;2.53;;;;;;;1.67;75.41;99742.94;5084618;28;20020;-74
2020/12/11 04:57:51;;;;;;;3.08;2.05;;;;;;;1.64;75.67;99742.03;5084975;28;20031;-76
2020/12/11 05:00:18;;;;;;;2.55;1.65;;;;;;;1.60;75.89;99734.31;5084492;28;20111;-75
2020/12/11 05:02:45;;;;;;;4.10;2.85;;;;;;;1.66;75.73;99730.97;5084468;28;20100;-74
2020/12/11 05:05:12;;;;;;;3.88;2.40;;;;;;;1.60;75.75;99725.75;5084634;28;20035;-76
2020/12/11 05:07:38;;;;;;;4.65;2.55;;;;;;;1.72;75.50;99746.47;5084693;28;20027;-75
2020/12/11 05:10:09;;;;;;;6.05;2.95;;;;;;;1.60;75.81;99730.88;5084380;28;20056;-75
2020/12/11 05:12:35;;;;;;;6.97;1.60;;;;;;;1.67;75.85;99734.41;5084757;28;20017;-74
2020/12/11 05:15:22;;;;;;;5.95;2.60;;;;;;;1.68;75.88;99733.56;5084497;28;20028;-75
2020/12/11 05:17:47;;;;;;;5.72;2.97;;;;;;;1.69;75.93;99733.59;5084501;28;20103;-73
2020/12/11 05:20:12;;;;;;;5.07;3.53;;;;;;;1.70;75.83;99732.75;5084182;28;20035;-74
2020/12/11 05:22:40;;;;;;;3.58;2.33;;;;;;;1.96;74.71;99728.91;5084261;28;20066;-74
2020/12/11 05:25:13;;;;;;;3.63;2.30;;;;;;;1.71;75.41;99729.34;5083928;28;20044;-75
2020/12/11 05:27:42;;;;;;;3.70;2.15;;;;;;;1.71;75.76;99739.59;5084263;28;20020;-73
2020/12/11 05:30:07;;;;;;;2.92;1.55;;;;;;;1.73;75.40;99737.94;5083425;28;20035;-73
2020/12/11 05:32:50;;;;;;;2.85;1.70;;;;;;;1.75;75.31;99734.53;5084230;28;20068;-75
2020/12/11 05:35:18;;;;;;;4.47;2.70;;;;;;;1.68;75.45;99731.88;5084364;28;20119;-73
2020/12/11 05:37:47;;;;;;;4.70;2.83;;;;;;;1.68;75.74;99731.00;5084360;28;20042;-75
2020/12/11 05:40:20;;;;;;;3.95;2.28;;;;;;;1.77;75.26;99722.63;5083605;28;20107;-74
2020/12/11 05:43:16;;;;;;;3.42;2.22;;;;;;;1.85;74.90;99726.19;5083967;28;20539;-74
2020/12/11 05:45:55;;;;;;;3.08;1.83;;;;;;;1.78;74.73;99720.09;5083902;28;20055;-74
2020/12/11 05:48:23;;;;;;;3.30;1.83;;;;;;;1.90;74.17;99721.97;5083850;28;20438;-75
2020/12/11 05:50:49;;;;;;;2.53;1.60;;;;;;;1.77;74.55;99718.38;5084052;28;20008;-74
2020/12/11 05:53:14;;;;;;;6.00;2.90;;;;;;;1.73;74.11;99697.00;5083858;28;20580;-73
2020/12/11 05:55:40;;;;;;;3.88;2.63;;;;;;;1.73;74.46;99714.03;5083576;28;20028;-73
2020/12/11 05:58:09;;;;;;;3.28;2.33;;;;;;;1.75;74.51;99708.94;5083914;28;20024;-75
2020/12/11 06:00:34;;;;;;;3.60;2.30;;;;;;;1.83;73.57;99710.81;5083544;28;20384;-74
2020/12/11 06:03:00;;;;;;;6.53;3.83;;;;;;;1.67;74.35;99707.13;5083599;28;20049;-74
2020/12/11 06:05:26;;;;;;;4.18;2.58;;;;;;;1.72;74.36;99704.63;5083879;28;20295;-74
2020/12/11 06:07:52;;;;;;;4.78;2.42;;;;;;;1.71;74.01;99703.78;5083524;28;20054;-74
2020/12/11 06:10:22;;;;;;;4.72;3.03;;;;;;;1.67;74.36;99704.56;5083350;28;20052;-74
2020/12/11 06:12:49;;;;;;;5.15;2.80;;;;;;;1.77;73.84;99707.28;5083745;28;20020;-74
2020/12/11 06:15:17;;;;;;;4.40;2.45;;;;;;;1.87;73.29;99703.16;5082114;28;20024;-75
2020/12/11 06:17:49;;;;;;;5.00;2.97;;;;;;;1.82;73.34;99695.41;5083724;28;20028;-73
2020/12/11 06:20:15;;;;;;;;;;;;;;;1.96;72.89;99701.63;5083825;28;20150;-74
2020/12/11 06:22:44;;;;;;;2.03;1.48;;;;;;;1.83;73.28;99687.75;5083765;28;19940;-68
2020/12/11 06:25:29;;;;;;;6.72;2.45;;;;;;;1.77;73.59;99684.25;5083072;28;20033;-71
2020/12/11 06:27:56;;;;;;;2.75;1.88;;;;;;;1.78;73.33;99696.19;5083390;28;20031;-74
2020/12/11 06:30:30;;;;;;;3.05;2.10;;;;;;;1.67;74.06;99701.13;5083342;28;20047;-75
2020/12/11 06:32:58;;;;;;;6.63;3.10;;;;;;;1.72;73.86;99692.72;5083434;28;20076;-75
2020/12/11 06:35:24;;;;;;;3.25;2.03;;;;;;;1.79;73.44;99693.66;5083624;28;20112;-73
2020/12/11 06:37:50;;;;;;;8.68;3.55;;;;;;;1.65;74.36;99698.56;5083355;28;20024;-72
2020/12/11 06:40:16;;;;;;;6.72;3.22;;;;;;;1.71;74.01;99700.38;5083184;28;20094;-71
2020/12/11 06:42:43;;;;;;;5.88;3.22;;;;;;;1.91;73.08;99700.69;5087274;28;20033;-72
2020/12/11 06:45:25;;;;;;;8.70;2.92;;;;;;;1.82;73.32;99703.94;5087600;28;20036;-73
2020/12/11 06:47:56;;;;;;;6.78;3.35;;;;;;;1.71;73.96;99697.81;5087496;28;20035;-73
2020/12/11 06:50:33;;;;;;;5.87;3.37;;;;;;;1.68;74.15;99703.72;5087448;28;20063;-73
2020/12/11 06:53:01;;;;;;;3.88;2.08;;;;;;;1.71;74.39;99703.78;5087342;28;20020;-73
2020/12/11 06:55:51;;;;;;;8.43;3.85;;;;;;;1.78;74.00;99702.19;5086843;28;20043;-73
2020/12/11 06:58:18;;;;;;;4.05;2.35;;;;;;;1.83;73.69;99699.69;5087204;28;20047;-73
2020/12/11 07:01:01;;;;;;;6.25;3.10;;;;;;;1.77;73.76;99692.78;5087213;28;20029;-74
2020/12/11 07:03:28;;;;;;;7.30;3.20;;;;;;;1.83;73.21;99692.00;5085579;28;20513;-73
2020/12/11 07:05:58;;;;;;;4.30;2.25;;;;;;;1.77;73.91;99686.78;5085576;28;20044;-74
2020/12/11 07:08:24;;;;;;;3.20;2.45;;;;;;;1.68;74.38;99701.16;5085759;28;20025;-71
2020/12/11 07:10:49;;;;;;;4.35;2.08;;;;;;;1.88;73.47;99700.63;5085318;28;20032;-74
2020/12/11 07:13:15;;;;;;;25.80;2.67;;;;;;;1.77;73.67;99689.34;5085585;28;20023;-74
2020/12/11 07:15:40;;;;;;;6.15;3.20;;;;;;;1.68;74.21;99693.47;5085373;28;20047;-72
2020/12/11 07:18:16;;;;;;;7.18;3.38;;;;;;;1.71;74.31;99698.66;5083950;28;20087;-71
2020/12/11 07:20:57;;;;;;;5.53;3.00;;;;;;;1.79;74.26;99701.31;5085422;28;20472;-71
2020/12/11 07:23:24;;;;;;;5.07;2.77;;;;;;;1.90;73.56;99686.13;5085312;28;20090;-73
2020/12/11 07:25:52;;;;;;;4.32;3.05;;;;;;;1.88;73.81;99708.31;5084586;28;20024;-72
2020/12/11 07:28:17;;;;;;;6.90;4.15;;;;;;;1.79;74.30;99703.88;5085277;28;20124;-72
2020/12/11 07:30:47;;;;;;;9.20;3.40;;;;;;;1.89;73.88;99691.22;5084776;28;20024;-71
2020/12/11 07:33:13;;;;;;;4.53;3.15;;;;;;;1.73;74.75;99701.22;5084850;28;20501;-72
2020/12/11 07:35:49;;;;;;;3.50;2.10;;;;;;;1.61;75.29;99687.38;5084878;28;20040;-72
2020/12/11 07:38:17;;;;;;;5.70;3.80;;;;;;;1.58;75.78;99704.41;5085239;28;20024;-72
2020/12/11 07:40:43;;;;;;;5.68;3.90;;;;;;;1.64;75.54;99707.06;5083111;28;20020;-72
2020/12/11 07:43:10;;;;;;;9.10;3.97;;;;;;;1.56;75.83;99696.72;5085266;28;20046;-72
2020/12/11 07:45:37;;;;;;;6.53;3.40;;;;;;;1.67;75.94;99702.00;5085212;28;20040;-72
2020/12/11 07:48:03;;;;;;;7.32;4.35;;;;;;;1.59;76.22;99701.00;5085163;28;20044;-72
2020/12/11 07:50:30;;;;;;;7.75;3.85;;;;;;;1.62;76.40;99718.97;5085182;28;20024;-73
2020/12/11 07:53:07;;;;;;;7.00;3.50;;;;;;;1.64;76.56;99719.00;5083987;28;20040;-72
2020/12/11 07:55:32;;;;;;;6.40;3.42;;;;;;;1.62;76.45;99713.84;5084230;28;20050;-71
2020/12/11 07:57:58;;;;;;;7.13;3.78;;;;;;;1.53;77.03;99714.56;5085185;28;20028;-76
2020/12/11 08:00:25;;;;;;;8.05;4.82;;;;;;;1.52;77.21;99714.53;5084100;28;20075;-71
2020/12/11 08:02:52;;;;;;;7.07;4.18;;;;;;;1.39;77.87;99711.75;5061894;28;667554;-71
2020/12/11 08:05:18;;;;;;;9.70;5.10;;;;;;;1.36;78.26;99711.69;5086055;28;20036;-71
2020/12/11 08:07:50;;;;;;;6.53;3.75;;;;;;;1.40;78.58;99708.38;5086073;28;20021;-71
2020/12/11 08:10:23;;;;;;;;;;;;;;;1.33;78.73;99711.63;5086035;28;20122;-70
2020/12/11 08:12:50;;;;;;;9.80;2.55;;;;;;;1.43;78.94;99708.44;5085928;28;20062;-72
2020/12/11 08:15:48;;;;;;;10.98;6.03;;;;;;;1.17;79.78;99706.25;5085963;28;20024;-73
2020/12/11 08:18:21;;;;;;;13.60;6.90;;;;;;;1.10;80.21;99705.25;5051483;28;20033;-72
2020/12/11 08:20:58;;;;;;;4.97;2.33;;;;;;;1.20;80.22;99696.06;5084016;28;20020;-71
2020/12/11 08:23:25;;;;;;;11.70;5.85;;;;;;;1.16;80.43;99701.97;5085841;28;20032;-72
2020/12/11 08:26:14;;;;;;;12.10;5.30;;;;;;;1.20;80.57;99702.88;5083892;28;20105;-72
2020/12/11 08:28:40;;;;;;;10.82;5.28;;;;;;;1.27;80.26;99708.97;5085362;28;20020;-71
2020/12/11 08:31:24;;;;;;;7.07;3.75;;;;;;;1.47;79.84;99704.22;5085569;28;20512;-73
2020/12/11 08:34:00;;;;;;;10.77;5.57;;;;;;;1.26;80.21;99702.16;5085600;28;20036;-72
2020/12/11 08:36:27;;;;;;;8.15;4.40;;;;;;;1.36;80.24;99697.22;5085583;28;20044;-72
2020/12/11 08:39:12;;;;;;;8.18;4.35;;;;;;;1.35;80.51;99708.28;5085164;28;20055;-72
2020/12/11 08:41:42;;;;;;;9.52;4.70;;;;;;;1.31;80.66;99700.53;5084882;28;20017;-71
2020/12/11 08:44:31;;;;;;;8.77;4.35;;;;;;;1.44;80.26;99699.91;5085422;28;20380;-71
2020/12/11 08:49:55;;;;;;;10.30;4.85;;;;;;;1.42;80.53;99699.00;5068744;28;20052;-72
2020/12/11 08:52:23;;;;;;;4.90;2.10;;;;;;;1.51;80.23;99700.88;5085254;28;20032;-72
2020/12/11 08:54:53;;;;;;;7.82;4.50;;;;;;;1.48;80.42;99700.81;5084512;28;20076;-72
2020/12/11 08:57:18;;;;;;;11.23;6.30;;;;;;;1.56;80.08;99704.38;5085204;28;20024;-73
2020/12/11 08:59:44;;;;;;;8.75;4.75;;;;;;;1.59;80.05;99695.88;5085037;28;20024;-72
2020/12/11 09:02:09;;;;;;;8.52;5.35;;;;;;;1.45;80.63;99696.50;5084488;28;20048;-72
2020/12/11 09:04:35;;;;;;;8.43;3.85;;;;;;;1.57;80.47;99707.78;5082269;28;20049;-72
2020/12/11 09:07:00;;;;;;;7.05;4.15;;;;;;;1.53;80.62;99703.47;5084827;28;20044;-72
2020/12/11 09:09:25;;;;;;;6.75;4.15;;;;;;;1.58;80.60;99704.41;5083145;28;20031;-71
2020/12/11 09:11:51;;;;;;;8.32;3.85;;;;;;;1.71;80.10;99708.03;5084024;28;20091;-72
2020/12/11 09:14:16;;;;;;;5.70;3.22;;;;;;;1.72;80.31;99705.50;5084404;28;20017;-72
2020/12/11 09:16:42;;;;;;;8.32;3.72;;;;;;;1.69;80.13;99702.88;5084263;28;20389;-73
2020/12/11 09:19:07;;;;;;;7.78;4.05;;;;;;;1.71;80.24;99700.38;5084249;28;20028;-71
2020/12/11 09:21:33;;;;;;;8.75;4.13;;;;;;;1.77;80.11;99692.78;5084011;28;20076;-72
2020/12/11 09:23:58;;;;;;;8.82;4.05;;;;;;;1.75;80.30;99697.00;5084595;28;20043;-72
2020/12/11 09:26:26;;;;;;;9.55;5.00;;;;;;;1.68;80.50;99688.38;5084020;28;20028;-72
2020/12/11 09:28:58;;;;;;;8.50;3.67;;;;;;;1.78;80.54;99698.75;5084247;28;20047;-72
2020/12/11 09:31:25;;;;;;;4.50;2.95;;;;;;;1.89;79.91;99698.91;5084285;28;20020;-72
2020/12/11 09:33:50;;;;;;;12.02;5.38;;;;;;;1.82;79.98;99692.84;5084469;28;20085;-72
2020/12/11 09:36:15;;;;;;;9.23;4.82;;;;;;;1.75;79.99;99681.66;5084220;28;20020;-72
2020/12/11 09:38:41;;;;;;;6.82;3.78;;;;;;;1.96;79.66;99693.06;5083971;28;20028;-71
2020/12/11 09:41:07;;;;;;;7.00;3.75;;;;;;;1.85;79.96;99701.44;5083443;28;20048;-72
2020/12/11 09:54:31;;;;;;;8.18;4.32;;;;;;;1.87;79.62;99687.81;5083773;28;20062;-71
2020/12/11 09:56:56;;;;;;;5.68;3.70;;;;;;;1.85;80.05;99696.31;5083363;28;20030;-71
2020/12/11 09:59:32;;;;;;;8.10;4.53;;;;;;;1.86;80.11;99686.94;5083310;28;20044;-73
2020/12/11 10:04:26;;;;;;;7.70;3.97;;;;;;;2.03;79.54;99694.88;5083608;28;20051;-72
2020/12/11 10:06:51;;;;;;;4.75;2.45;;;;;;;1.90;80.00;99681.00;5083622;28;20449;-72
2020/12/11 10:09:16;;;;;;;6.57;3.33;;;;;;;1.91;80.48;99681.88;5083369;28;20089;-73
2020/12/11 10:11:42;;;;;;;8.18;4.13;;;;;;;2.01;79.92;99686.31;5083123;28;20055;-72
2020/12/11 10:14:30;;;;;;;4.95;3.13;;;;;;;2.15;79.26;99685.66;5083508;28;20023;-72
2020/12/11 10:16:56;;;;;;;15.98;4.88;;;;;;;1.99;79.73;99680.31;5083063;28;20020;-72
2020/12/11 10:19:22;;;;;;;5.43;3.47;;;;;;;2.15;79.13;99681.41;5083019;28;20058;-72
2020/12/11 10:21:48;;;;;;;7.20;4.63;;;;;;;2.01;79.83;99675.22;5083153;28;20031;-72
2020/12/11 10:24:15;;;;;;;9.52;4.45;;;;;;;2.02;80.01;99677.78;5083329;28;20039;-72
2020/12/11 10:26:41;;;;;;;4.45;1.77;;;;;;;2.16;79.68;99677.13;5083061;28;20032;-72
2020/12/11 10:29:06;;;;;;;6.70;3.50;;;;;;;2.15;79.30;99673.72;5083212;28;20021;-72
2020/12/11 10:31:32;;;;;;;5.85;3.35;;;;;;;2.13;79.38;99666.84;5081859;28;20024;-72
2020/12/11 10:33:58;;;;;;;8.30;3.90;;;;;;;2.10;79.34;99665.97;5083068;28;20017;-72
2020/12/11 10:36:33;;;;;;;7.97;4.82;;;;;;;2.08;79.83;99672.75;5081790;28;20031;-73
2020/12/11 10:38:59;;;;;;;4.90;2.67;;;;;;;2.12;79.53;99658.31;5083180;28;20032;-71
2020/12/11 10:41:27;;;;;;;6.30;3.55;;;;;;;2.15;79.58;99655.78;5082554;28;20031;-71
2020/12/11 10:43:53;;;;;;;5.88;3.47;;;;;;;2.18;79.23;99654.97;5083318;28;20024;-71
2020/12/11 10:46:19;;;;;;;9.07;5.05;;;;;;;2.17;79.43;99654.09;5083164;28;20024;-72
2020/12/11 10:48:44;;;;;;;4.68;2.15;;;;;;;2.23;79.58;99645.66;5083094;28;20228;-71
2020/12/11 10:51:12;;;;;;;6.55;3.10;;;;;;;2.25;79.42;99637.97;5083208;28;20399;-71
2020/12/11 10:53:37;;;;;;;4.00;2.63;;;;;;;2.37;78.98;99650.06;5083370;28;20028;-71
2020/12/11 10:56:06;;;;;;;7.10;3.75;;;;;;;2.30;78.98;99651.72;5082761;28;20024;-72
2020/12/11 10:58:32;;;;;;;10.95;4.47;;;;;;;2.29;78.98;99640.59;5083029;28;20048;-71
2020/12/11 11:00:58;;;;;;;8.38;3.85;;;;;;;2.28;79.35;99640.59;5082572;28;20496;-72
2020/12/11 11:03:27;;;;;;;10.85;4.57;;;;;;;2.32;79.20;99642.34;5081065;28;20091;-71
2020/12/11 11:05:53;;;;;;;6.70;4.20;;;;;;;2.65;77.41;99628.22;5082376;28;20021;-71
2020/12/11 11:08:19;;;;;;;4.93;2.85;;;;;;;2.47;77.84;99628.88;5080872;28;20062;-73
2020/12/11 11:10:48;;;;;;;5.47;3.40;;;;;;;2.41;77.66;99634.75;5082178;28;20029;-72
2020/12/11 11:13:23;;;;;;;7.43;3.92;;;;;;;2.29;78.55;99639.72;5082645;28;20044;-72
2020/12/11 11:15:51;;;;;;;8.13;4.35;;;;;;;2.35;78.63;99633.00;5082506;28;20025;-72
2020/12/11 11:28:51;;;;;;;6.35;3.28;;;;;;;2.47;78.05;99629.75;5084717;28;20024;-72
2020/12/11 11:31:17;;;;;;;5.00;1.88;;;;;;;2.59;77.88;99623.00;5086017;28;20044;-72
2020/12/11 11:33:42;;;;;;;4.00;2.38;;;;;;;2.59;77.38;99617.88;5085038;28;20500;-72
2020/12/11 11:36:09;;;;;;;5.85;3.90;;;;;;;2.48;77.68;99618.63;5086070;28;20031;-73
2020/12/11 11:38:34;;;;;;;7.13;4.97;;;;;;;2.46;77.95;99624.59;5086120;28;20054;-72
2020/12/11 11:41:00;;;;;;;5.43;3.20;;;;;;;2.40;78.30;99627.06;5083901;28;20020;-72
2020/12/11 11:43:37;;;;;;;6.55;4.05;;;;;;;2.46;77.92;99622.88;5085778;28;20051;-72
2020/12/11 11:46:02;;;;;;;8.00;4.22;;;;;;;2.61;76.88;99621.34;5089047;28;20053;-72
2020/12/11 11:48:28;;;;;;;5.10;2.67;;;;;;;2.48;77.57;99618.63;5099126;28;20044;-71
2020/12/11 11:51:06;;;;;;;9.93;3.30;;;;;;;2.45;77.70;99615.16;5091726;28;20021;-72
2020/12/11 11:53:32;;;;;;;9.13;2.97;;;;;;;2.45;77.61;99613.47;5085612;28;20024;-72
2020/12/11 11:55:58;;;;;;;6.05;4.53;;;;;;;2.44;77.32;99614.34;5085650;28;20098;-72
2020/12/11 11:58:23;;;;;;;7.82;4.40;;;;;;;2.38;77.90;99618.50;5085738;28;20148;-72
2020/12/11 12:00:49;;;;;;;3.50;2.15;;;;;;;2.51;77.42;99610.13;5085663;28;20042;-71
2020/12/11 12:03:14;;;;;;;8.10;4.10;;;;;;;2.39;77.76;99592.91;5085277;28;20436;-72
2020/12/11 12:05:41;;;;;;;6.35;4.07;;;;;;;2.43;77.88;99599.78;5084115;28;20036;-72
2020/12/11 12:08:09;;;;;;;5.60;3.80;;;;;;;2.41;77.79;99601.47;5085510;28;20025;-72
2020/12/11 12:10:35;;;;;;;5.85;4.25;;;;;;;2.40;77.96;99591.19;5084890;28;20031;-72